Ibra, Oman
Current Conditions -  °F | °C
As of 7:50 AM on Tuesday 21 Oct 2014 (Local Time) from OOMS Reporting Station
Clear Clear  
Wind Chill: 86°   Ceiling: Unl
Heat Index: 97°   Visibility: 5mi
Dew Point: 77°   Wind: 2mph
Humidity: 74%   Direction: NA
Pressure: 29.97"   Gusts: NA
Location:  22.72°N, 58.53°E
Report Text: OOMS 210350Z VRB02KT 8000 NSC 30/25 Q1015 NOSIG
Loading
Personal Weather Stations






























Interactive Weather Map
Tropical Storm Tracking
New forecast layout! Learn more

10-Day Weather Forecast

Advertisements
Track Severe Weather on mobile